Time;durP1;ratioP1;P1;durP2;ratioP2;P2;SDS_P1;SDS_P2;PMS_P1;PMS_P2;Temp;Humidity;BMP_temperature;BMP_pressure;BME280_temperature;BME280_humidity;BME280_pressure;Samples;Min_cycle;Max_cycle;Signal;HPM_P1;HPM_P2
2022/07/26 00:00:41;;;;;;;5.28;1.60;;;;;;;21.10;85.58;100195.72;5204648;28;20407;-72
2022/07/26 00:03:11;;;;;;;6.97;1.77;;;;;;;21.08;84.82;100188.88;5202608;28;20029;-72
2022/07/26 00:05:42;;;;;;;4.72;1.75;;;;;;;21.18;83.49;100187.09;5202633;28;20025;-72
2022/07/26 00:08:12;;;;;;;11.45;1.73;;;;;;;21.10;84.94;100200.22;5201974;28;20051;-72
2022/07/26 00:10:47;;;;;;;8.80;2.08;;;;;;;21.03;84.35;100199.06;5202451;28;20029;-72
2022/07/26 00:13:20;;;;;;;5.13;1.33;;;;;;;20.92;84.08;100201.75;5199128;28;20036;-72
2022/07/26 00:15:51;;;;;;;5.68;1.40;;;;;;;20.98;84.72;100201.22;5202994;28;20037;-72
2022/07/26 00:18:21;;;;;;;4.75;1.42;;;;;;;20.86;85.78;100208.41;5202006;28;20483;-72
2022/07/26 00:20:52;;;;;;;5.45;1.60;;;;;;;20.85;84.31;100198.78;5203442;28;20068;-72
2022/07/26 00:23:22;;;;;;;4.03;1.50;;;;;;;20.84;83.75;100204.19;5204204;28;20056;-72
2022/07/26 00:25:53;;;;;;;5.50;1.60;;;;;;;20.79;85.45;100196.59;5202413;28;20083;-72
2022/07/26 00:28:23;;;;;;;8.27;1.60;;;;;;;20.71;85.71;100198.22;5185494;28;20487;-72
2022/07/26 00:30:53;;;;;;;5.55;1.52;;;;;;;20.42;88.20;100197.09;5202796;28;20035;-72
2022/07/26 00:33:24;;;;;;;6.15;1.73;;;;;;;20.42;89.54;100201.56;5202052;28;20029;-72
2022/07/26 00:35:54;;;;;;;5.05;1.40;;;;;;;20.38;89.36;100203.63;5202350;28;20124;-72
2022/07/26 00:38:25;;;;;;;9.20;1.85;;;;;;;20.33;90.15;100204.97;5199385;28;20025;-72
2022/07/26 00:40:55;;;;;;;6.97;1.40;;;;;;;20.27;90.12;100208.13;5199737;28;20033;-72
2022/07/26 00:43:26;;;;;;;4.30;1.50;;;;;;;20.19;89.00;100198.13;5213200;23;20048;-75
2022/07/26 00:45:56;;;;;;;8.00;1.90;;;;;;;20.22;89.41;100200.53;5197591;28;20037;-75
2022/07/26 00:48:27;;;;;;;5.78;1.90;;;;;;;20.24;89.41;100197.75;5198776;28;20029;-75
2022/07/26 00:50:57;;;;;;;6.38;2.30;;;;;;;19.98;92.06;100205.09;5199864;28;20320;-75
2022/07/26 00:53:28;;;;;;;8.95;1.83;;;;;;;20.04;90.87;100207.31;5187003;28;20029;-74
2022/07/26 00:55:58;;;;;;;8.82;2.33;;;;;;;19.52;94.50;100207.06;5200414;28;20071;-74
2022/07/26 00:58:28;;;;;;;5.50;1.52;;;;;;;19.47;95.40;100211.88;5198815;28;20106;-75
2022/07/26 01:00:59;;;;;;;6.43;1.90;;;;;;;19.60;93.76;100209.97;5201143;28;20418;-75
2022/07/26 01:03:29;;;;;;;5.63;1.80;;;;;;;19.46;94.42;100204.06;5198826;28;20041;-74
2022/07/26 01:06:00;;;;;;;6.63;1.88;;;;;;;19.30;95.65;100208.84;5199177;28;20037;-75
2022/07/26 01:08:30;;;;;;;8.23;1.85;;;;;;;19.45;94.43;100205.00;5199900;28;20088;-75
2022/07/26 01:11:01;;;;;;;7.40;1.80;;;;;;;19.26;94.69;100202.09;5199499;28;20029;-75
2022/07/26 01:13:33;;;;;;;6.78;1.98;;;;;;;19.08;95.91;100206.97;5200091;28;20026;-75
2022/07/26 01:16:03;;;;;;;7.65;1.67;;;;;;;19.17;95.60;100211.59;5199266;28;20036;-74
2022/07/26 01:18:33;;;;;;;3.28;1.42;;;;;;;19.17;95.05;100211.59;5198377;28;20025;-73
2022/07/26 01:21:07;;;;;;;6.70;1.90;;;;;;;19.17;95.20;100210.75;5199269;28;20517;-75
2022/07/26 01:23:37;;;;;;;7.07;1.75;;;;;;;19.20;94.67;100214.00;5200128;28;20057;-74
2022/07/26 01:26:08;;;;;;;6.72;1.95;;;;;;;19.03;94.43;100214.41;5199268;28;20507;-74
2022/07/26 01:28:40;;;;;;;6.38;1.80;;;;;;;18.58;93.76;100218.81;5197834;28;20407;-74
2022/07/26 01:31:10;;;;;;;8.07;2.03;;;;;;;18.25;100.00;100215.94;5199297;28;20120;-74
2022/07/26 01:33:41;;;;;;;7.68;2.58;;;;;;;18.13;100.00;100216.81;5198691;28;20116;-75
2022/07/26 01:36:11;;;;;;;7.80;2.30;;;;;;;18.00;100.00;100214.22;5198533;28;20116;-72
2022/07/26 01:38:42;;;;;;;5.68;2.25;;;;;;;18.02;100.00;100208.84;5198084;28;20096;-74
2022/07/26 01:41:13;;;;;;;10.60;2.65;;;;;;;18.09;100.00;100216.22;5200133;28;20060;-74
2022/07/26 01:43:43;;;;;;;10.98;5.30;;;;;;;18.01;100.00;100207.97;5197663;28;20391;-75
2022/07/26 01:46:14;;;;;;;11.43;3.90;;;;;;;17.79;100.00;100213.09;5199995;28;20164;-75
2022/07/26 01:48:44;;;;;;;7.90;2.40;;;;;;;18.00;100.00;100218.69;5197473;28;20037;-75
2022/07/26 01:51:14;;;;;;;8.77;2.50;;;;;;;18.17;100.00;100220.97;5197889;28;20032;-74
2022/07/26 01:53:45;;;;;;;5.45;2.30;;;;;;;18.22;100.00;100210.88;5199394;28;20577;-74
2022/07/26 01:56:15;;;;;;;10.73;2.83;;;;;;;18.30;100.00;100216.47;5197711;28;20029;-75
2022/07/26 01:58:46;;;;;;;6.40;2.45;;;;;;;18.34;100.00;100215.31;5199571;28;20107;-75
2022/07/26 02:01:16;;;;;;;8.40;2.55;;;;;;;18.57;100.00;100225.91;5199690;28;20056;-75
2022/07/26 02:03:46;;;;;;;5.15;2.10;;;;;;;18.72;100.00;100221.28;5197576;28;20597;-75
2022/07/26 02:06:17;;;;;;;10.40;2.17;;;;;;;18.77;100.00;100230.59;5198836;28;20021;-75
2022/07/26 02:08:47;;;;;;;8.27;2.50;;;;;;;18.99;100.00;100226.22;5197288;28;20049;-75
2022/07/26 02:11:18;;;;;;;6.65;1.60;;;;;;;19.08;100.00;100224.69;5198351;28;20394;-75
2022/07/26 02:13:48;;;;;;;6.15;1.92;;;;;;;19.27;100.00;100227.63;5199710;28;20486;-75
2022/07/26 02:16:18;;;;;;;8.85;1.90;;;;;;;19.13;100.00;100227.81;5199356;28;20040;-75
2022/07/26 02:18:49;;;;;;;6.22;1.77;;;;;;;19.15;100.00;100216.16;5197664;28;20033;-75
2022/07/26 02:21:19;;;;;;;9.07;2.20;;;;;;;19.10;100.00;100228.03;5197984;28;20331;-75
2022/07/26 02:23:49;;;;;;;10.68;2.35;;;;;;;19.19;100.00;100227.38;5197660;28;20061;-74
2022/07/26 02:26:20;;;;;;;13.27;2.20;;;;;;;19.23;100.00;100223.50;5197096;28;20116;-75
2022/07/26 02:28:50;;;;;;;11.40;2.30;;;;;;;18.95;100.00;100224.72;5196093;28;20021;-75
2022/07/26 02:31:21;;;;;;;7.57;1.98;;;;;;;18.82;100.00;100229.28;5197782;28;20545;-74
2022/07/26 02:33:51;;;;;;;8.25;2.10;;;;;;;18.61;100.00;100234.47;5199304;28;20452;-75
2022/07/26 02:36:21;;;;;;;8.73;2.17;;;;;;;18.54;100.00;100231.41;5199092;28;20112;-75
2022/07/26 02:38:52;;;;;;;10.18;2.63;;;;;;;18.48;100.00;100223.09;5199028;28;20032;-75
2022/07/26 02:41:22;;;;;;;13.80;2.10;;;;;;;18.27;100.00;100236.09;5199232;28;20055;-75
2022/07/26 02:43:52;;;;;;;8.55;2.22;;;;;;;18.14;100.00;100237.88;5197876;28;20037;-75
2022/07/26 02:46:23;;;;;;;6.85;1.80;;;;;;;18.35;100.00;100239.00;5198945;28;20456;-75
2022/07/26 02:48:53;;;;;;;6.63;1.90;;;;;;;18.56;100.00;100236.59;5196969;28;20368;-75
2022/07/26 02:51:24;;;;;;;6.70;2.15;;;;;;;18.61;100.00;100234.47;5197570;28;20307;-75
2022/07/26 02:53:54;;;;;;;7.82;1.90;;;;;;;18.38;100.00;100235.31;5197083;28;20034;-75
2022/07/26 02:56:25;;;;;;;10.48;1.92;;;;;;;18.31;100.00;100236.72;5197048;28;20457;-75
2022/07/26 02:58:55;;;;;;;6.32;1.80;;;;;;;18.23;100.00;100245.19;5196239;28;20160;-75
2022/07/26 03:01:26;;;;;;;8.25;1.92;;;;;;;18.51;100.00;100244.06;5196469;28;20030;-75
2022/07/26 03:03:56;;;;;;;7.18;2.30;;;;;;;18.30;100.00;100250.88;5196824;28;20033;-75
2022/07/26 03:06:26;;;;;;;7.95;1.98;;;;;;;18.27;100.00;100248.41;5198156;28;20036;-76
2022/07/26 03:08:58;;;;;;;8.55;1.80;;;;;;;18.07;100.00;100255.16;5196667;28;20033;-75
2022/07/26 03:11:28;;;;;;;7.75;2.30;;;;;;;18.17;100.00;100247.41;5196993;28;20128;-75
2022/07/26 03:13:59;;;;;;;7.00;2.00;;;;;;;18.33;100.00;100245.38;5197343;28;20120;-75
2022/07/26 03:16:29;;;;;;;6.78;2.25;;;;;;;18.18;100.00;100249.94;5196918;28;20044;-76
2022/07/26 03:19:00;;;;;;;7.95;2.30;;;;;;;18.52;100.00;100248.38;5197025;28;20374;-75
2022/07/26 03:21:31;;;;;;;8.23;2.25;;;;;;;18.70;100.00;100250.50;5180557;28;20091;-75
2022/07/26 03:24:01;;;;;;;10.63;2.20;;;;;;;18.69;100.00;100255.94;5198535;28;20094;-75
2022/07/26 03:26:31;;;;;;;7.63;2.08;;;;;;;18.65;100.00;100263.25;5196190;28;20544;-73
2022/07/26 03:29:02;;;;;;;8.35;2.22;;;;;;;18.52;100.00;100259.81;5198467;28;20056;-75
2022/07/26 03:31:32;;;;;;;6.60;2.03;;;;;;;18.66;100.00;100258.81;5196514;28;20033;-75
2022/07/26 03:34:02;;;;;;;9.20;1.70;;;;;;;18.74;100.00;100259.94;5196982;28;20303;-75
2022/07/26 03:36:33;;;;;;;8.90;1.70;;;;;;;18.73;100.00;100261.72;5196325;28;20124;-75
2022/07/26 03:39:03;;;;;;;7.70;1.30;;;;;;;19.12;97.06;100261.41;5196705;28;20034;-75
2022/07/26 03:41:34;;;;;;;4.82;1.15;;;;;;;19.24;94.96;100257.03;5196911;28;20398;-75
2022/07/26 03:44:04;;;;;;;13.45;1.80;;;;;;;19.28;94.04;100251.34;5196005;28;20033;-75
2022/07/26 03:46:35;;;;;;;6.63;1.20;;;;;;;19.60;93.05;100254.19;5196536;28;20029;-73
2022/07/26 03:49:05;;;;;;;6.65;1.35;;;;;;;19.71;90.25;100260.34;5197852;28;20156;-75
2022/07/26 03:51:35;;;;;;;8.00;1.33;;;;;;;19.61;91.38;100251.41;5198130;28;20025;-75
2022/07/26 03:54:06;;;;;;;8.30;1.30;;;;;;;19.74;92.00;100261.91;5198197;28;20026;-75
2022/07/26 03:56:36;;;;;;;4.25;1.05;;;;;;;19.62;93.70;100250.44;5196309;28;20124;-73
2022/07/26 03:59:09;;;;;;;6.25;1.40;;;;;;;19.61;92.76;100256.72;5195607;28;20041;-75
2022/07/26 04:01:41;;;;;;;5.90;1.20;;;;;;;19.69;91.76;100254.34;5196635;28;20099;-74
2022/07/26 04:04:13;;;;;;;8.70;1.20;;;;;;;19.80;91.53;100262.28;5195726;28;20087;-75
2022/07/26 04:06:45;;;;;;;7.05;1.25;;;;;;;19.84;91.14;100249.63;5196659;28;20033;-75
2022/07/26 04:09:16;;;;;;;7.32;1.27;;;;;;;20.03;90.64;100249.88;5194397;28;20047;-75
2022/07/26 04:11:47;;;;;;;7.43;1.10;;;;;;;20.08;88.92;100255.66;5195601;28;20505;-74
2022/07/26 04:14:17;;;;;;;9.63;1.20;;;;;;;19.88;89.13;100259.88;5199064;28;20063;-75
2022/07/26 04:16:48;;;;;;;5.75;1.00;;;;;;;19.97;89.06;100253.00;5198983;28;20541;-74
2022/07/26 04:19:18;;;;;;;4.40;1.25;;;;;;;19.95;89.37;100254.94;5199897;28;20025;-75
2022/07/26 04:21:48;;;;;;;3.03;0.95;;;;;;;20.07;89.27;100252.19;5201732;28;20505;-75
2022/07/26 04:24:19;;;;;;;6.43;1.17;;;;;;;19.92;89.44;100248.06;5199910;28;20502;-75
2022/07/26 04:26:49;;;;;;;5.63;1.30;;;;;;;19.93;89.98;100252.41;5199987;28;20033;-75
2022/07/26 04:29:19;;;;;;;4.28;0.98;;;;;;;19.91;90.20;100249.03;5199412;28;20026;-74
2022/07/26 04:31:50;;;;;;;5.30;1.23;;;;;;;19.89;89.20;100255.41;5199874;28;20515;-75
2022/07/26 04:34:20;;;;;;;6.78;0.85;;;;;;;19.91;87.97;100254.31;5201175;28;20021;-74
2022/07/26 04:36:51;;;;;;;7.18;1.13;;;;;;;19.85;89.25;100260.13;5199085;28;20029;-75
2022/07/26 04:39:23;;;;;;;5.90;1.20;;;;;;;20.05;89.20;100251.47;5199416;28;20051;-75
2022/07/26 04:41:53;;;;;;;3.90;1.33;;;;;;;20.34;87.73;100251.78;5200550;28;20036;-75
2022/07/26 04:44:24;;;;;;;6.78;1.30;;;;;;;20.94;85.45;100253.81;5199253;28;20017;-75
2022/07/26 04:46:54;;;;;;;7.80;1.27;;;;;;;22.00;81.32;100245.50;5198823;28;20041;-75
2022/07/26 04:49:24;;;;;;;4.35;0.98;;;;;;;23.38;75.23;100245.16;5199330;28;20043;-75
2022/07/26 04:51:55;;;;;;;4.25;1.30;;;;;;;23.10;75.18;100248.69;5199923;28;20062;-75
2022/07/26 04:54:25;;;;;;;7.93;1.08;;;;;;;25.19;69.69;100240.59;5198553;28;20029;-76
2022/07/26 04:56:56;;;;;;;5.38;1.08;;;;;;;26.38;67.64;100242.28;5197760;28;20071;-75
2022/07/26 04:59:26;;;;;;;7.20;1.30;;;;;;;26.85;64.32;100246.97;5200702;28;20041;-76
2022/07/26 05:01:57;;;;;;;7.97;1.00;;;;;;;27.86;62.77;100247.31;5197993;28;20407;-76
2022/07/26 05:04:27;;;;;;;5.72;1.30;;;;;;;27.29;63.42;100244.84;5198269;28;20037;-75
2022/07/26 05:07:01;;;;;;;4.07;1.00;;;;;;;27.45;63.68;100253.72;5198515;28;20033;-75
2022/07/26 05:09:31;;;;;;;3.13;1.10;;;;;;;28.43;59.83;100253.31;5199718;28;20029;-76
2022/07/26 05:12:02;;;;;;;4.68;1.13;;;;;;;28.19;62.32;100246.19;5199172;28;20040;-74
2022/07/26 05:14:32;;;;;;;3.83;0.90;;;;;;;29.13;59.96;100245.84;5198700;28;20442;-73
2022/07/26 05:17:03;;;;;;;6.95;1.00;;;;;;;28.70;59.44;100251.00;5198349;28;20127;-73
2022/07/26 05:19:33;;;;;;;4.35;1.00;;;;;;;29.10;58.49;100248.03;5198577;28;20059;-74
2022/07/26 05:22:04;;;;;;;4.97;1.05;;;;;;;28.79;60.00;100247.22;5199484;28;20037;-74
2022/07/26 05:24:34;;;;;;;6.72;1.30;;;;;;;28.06;60.76;100251.28;5197024;28;20063;-74
2022/07/26 05:27:04;;;;;;;7.15;1.02;;;;;;;28.49;60.48;100255.31;5198142;28;20044;-73
2022/07/26 05:29:35;;;;;;;9.70;1.30;;;;;;;29.11;59.29;100255.94;5194762;28;20048;-74
2022/07/26 05:32:05;;;;;;;6.13;1.15;;;;;;;29.73;57.90;100251.22;5199484;28;20027;-73
2022/07/26 05:34:36;;;;;;;8.02;1.20;;;;;;;29.57;58.22;100249.50;5197740;28;20087;-75
2022/07/26 05:37:06;;;;;;;5.32;1.20;;;;;;;28.81;60.14;100243.34;5196230;28;20025;-73
2022/07/26 05:39:37;;;;;;;6.15;1.40;;;;;;;29.02;59.97;100250.78;5195547;28;20025;-74
2022/07/26 05:42:07;;;;;;;5.40;1.25;;;;;;;29.76;59.03;100246.25;5198073;28;20037;-75
2022/07/26 05:44:37;;;;;;;5.22;1.05;;;;;;;29.09;58.03;100252.56;5198485;28;20104;-74
2022/07/26 05:47:08;;;;;;;4.32;1.38;;;;;;;28.20;60.19;100255.06;5198920;28;20034;-74
2022/07/26 05:49:39;;;;;;;3.65;1.10;;;;;;;26.99;63.38;100259.75;5181054;28;20034;-75
2022/07/26 05:52:09;;;;;;;7.28;1.45;;;;;;;27.36;63.24;100253.91;5197778;28;20032;-76
2022/07/26 05:54:39;;;;;;;4.45;1.10;;;;;;;28.07;61.71;100252.09;5199366;28;20029;-76
2022/07/26 05:57:10;;;;;;;5.57;1.20;;;;;;;28.71;60.58;100249.97;5197260;28;20088;-74
2022/07/26 05:59:40;;;;;;;5.82;1.42;;;;;;;27.72;62.13;100258.75;5197514;28;20029;-76
2022/07/26 06:02:10;;;;;;;4.32;1.20;;;;;;;28.02;62.95;100255.31;5197050;28;20053;-76
2022/07/26 06:04:41;;;;;;;12.05;1.30;;;;;;;26.64;65.36;100258.31;5180304;28;20029;-76
2022/07/26 06:07:11;;;;;;;6.60;1.55;;;;;;;25.38;69.37;100258.28;5198600;28;20475;-75
2022/07/26 06:09:42;;;;;;;7.18;1.48;;;;;;;25.92;68.09;100261.53;5197479;28;20103;-75
2022/07/26 06:12:12;;;;;;;6.45;1.60;;;;;;;24.83;70.30;100254.94;5199350;28;20036;-76
2022/07/26 06:14:43;;;;;;;4.75;1.30;;;;;;;24.94;70.57;100253.88;5198755;28;20062;-76
2022/07/26 06:17:14;;;;;;;3.45;1.20;;;;;;;25.28;70.15;100262.91;5200040;28;20511;-74
2022/07/26 06:19:44;;;;;;;5.28;1.02;;;;;;;25.89;68.36;100258.31;5198865;28;20018;-76
2022/07/26 06:22:14;;;;;;;9.00;1.23;;;;;;;25.30;69.49;100266.28;5199167;28;20033;-76
2022/07/26 06:24:45;;;;;;;7.35;1.17;;;;;;;25.21;69.42;100262.69;5201253;28;20021;-75
2022/07/26 06:27:15;;;;;;;5.95;1.60;;;;;;;25.36;68.88;100274.53;5194005;28;20025;-76
2022/07/26 06:29:47;;;;;;;5.68;1.50;;;;;;;25.33;69.75;100257.94;5197287;28;20422;-76
2022/07/26 06:32:17;;;;;;;4.35;1.42;;;;;;;25.52;68.39;100255.06;5199466;28;20026;-75
2022/07/26 06:34:48;;;;;;;6.90;1.33;;;;;;;25.85;68.51;100255.13;5199802;28;20156;-75
2022/07/26 06:37:18;;;;;;;6.43;1.40;;;;;;;25.98;68.13;100265.41;5197301;28;20025;-76
2022/07/26 06:39:48;;;;;;;5.03;1.40;;;;;;;25.66;68.51;100265.19;5199397;28;20103;-76
2022/07/26 06:42:19;;;;;;;5.20;1.45;;;;;;;25.34;69.82;100275.66;5197043;28;20454;-76
2022/07/26 06:44:49;;;;;;;6.35;1.52;;;;;;;24.54;71.95;100285.53;5213649;22;20411;-76
2022/07/26 06:47:19;;;;;;;5.97;1.52;;;;;;;23.81;73.52;100295.34;5198671;28;20108;-75
2022/07/26 06:49:50;;;;;;;6.43;1.60;;;;;;;23.93;73.99;100289.75;5198549;28;20029;-75
2022/07/26 06:52:21;;;;;;;6.38;1.70;;;;;;;23.68;74.52;100292.16;5196224;28;20541;-75
2022/07/26 06:54:51;;;;;;;5.70;1.70;;;;;;;23.29;76.34;100299.38;5198057;28;20387;-75
2022/07/26 06:57:21;;;;;;;6.50;1.70;;;;;;;22.80;78.34;100302.13;5197898;28;20212;-75
2022/07/26 06:59:52;;;;;;;7.47;1.45;;;;;;;23.04;77.51;100289.22;5199818;28;20063;-75
2022/07/26 07:02:23;;;;;;;12.07;1.58;;;;;;;23.01;77.59;100302.84;5198825;28;20029;-76
2022/07/26 07:04:53;;;;;;;6.72;1.58;;;;;;;22.82;77.78;100302.81;5198969;28;20017;-75
2022/07/26 07:07:23;;;;;;;5.00;1.58;;;;;;;22.86;78.13;100311.41;5198854;28;20030;-75
2022/07/26 07:09:54;;;;;;;7.32;2.00;;;;;;;22.70;78.85;100317.25;5199125;28;20107;-75
2022/07/26 07:12:24;;;;;;;6.93;2.00;;;;;;;22.59;79.12;100316.53;5199382;28;20696;-75
2022/07/26 07:14:54;;;;;;;7.72;1.90;;;;;;;22.56;79.28;100324.78;5195298;28;20094;-75
2022/07/26 07:17:25;;;;;;;6.22;1.52;;;;;;;22.55;79.54;100323.09;5196259;28;20033;-75
2022/07/26 07:19:55;;;;;;;7.40;2.25;;;;;;;22.25;80.51;100319.63;5196453;28;20072;-75
2022/07/26 07:22:26;;;;;;;5.28;1.50;;;;;;;22.20;81.12;100321.81;5197984;28;20490;-76
2022/07/26 07:24:57;;;;;;;6.38;1.90;;;;;;;22.32;80.21;100326.94;5196203;28;20060;-75
2022/07/26 07:27:27;;;;;;;7.43;2.08;;;;;;;22.45;80.14;100318.72;5194908;28;20122;-75
2022/07/26 07:29:57;;;;;;;8.63;1.50;;;;;;;23.34;77.37;100320.31;5197859;28;20306;-75
2022/07/26 07:32:28;;;;;;;6.65;1.90;;;;;;;23.36;77.60;100311.16;5196004;28;20025;-75
2022/07/26 07:34:58;;;;;;;6.07;1.80;;;;;;;23.33;77.30;100307.94;5196232;28;20032;-75
2022/07/26 07:37:28;;;;;;;7.72;1.80;;;;;;;22.79;79.34;100321.75;5196185;28;20261;-75
2022/07/26 07:39:59;;;;;;;8.60;1.83;;;;;;;23.17;78.78;100321.84;5196491;28;20494;-76
2022/07/26 07:42:29;;;;;;;9.52;1.90;;;;;;;23.03;78.86;100324.03;5198287;28;20116;-74
2022/07/26 07:44:59;;;;;;;5.10;1.70;;;;;;;22.78;79.82;100325.41;5195728;28;20518;-75
2022/07/26 07:47:33;;;;;;;6.90;1.67;;;;;;;22.52;79.05;100328.72;5197101;28;20037;-74
2022/07/26 07:50:05;;;;;;;7.82;1.73;;;;;;;22.87;78.96;100321.91;5200382;28;20025;-75
2022/07/26 07:52:35;;;;;;;5.40;1.83;;;;;;;24.40;75.33;100310.03;5200597;28;20050;-75
2022/07/26 07:55:06;;;;;;;5.65;1.20;;;;;;;25.93;69.50;100311.44;5200407;28;20025;-76
2022/07/26 07:57:37;;;;;;;6.93;1.55;;;;;;;25.25;70.52;100316.72;5199295;28;20033;-75
2022/07/26 08:00:08;;;;;;;5.03;1.35;;;;;;;25.30;71.00;100314.44;5199890;28;20025;-75
2022/07/26 08:02:39;;;;;;;7.45;1.58;;;;;;;26.91;66.05;100308.00;5200117;28;20426;-72
2022/07/26 08:05:09;;;;;;;4.47;1.30;;;;;;;26.69;66.02;100310.47;5200236;28;20029;-76
2022/07/26 08:07:39;;;;;;;5.20;1.40;;;;;;;26.82;65.60;100303.66;5199542;28;20576;-75
2022/07/26 08:10:10;;;;;;;2.83;1.27;;;;;;;26.70;65.76;100306.78;5201007;28;20025;-76
2022/07/26 08:12:40;;;;;;;7.22;1.40;;;;;;;26.38;66.00;100313.84;5199934;28;20079;-76
2022/07/26 08:15:11;;;;;;;7.57;1.60;;;;;;;25.41;68.77;100311.50;5199602;28;20122;-75
2022/07/26 08:17:41;;;;;;;4.13;1.38;;;;;;;25.00;70.03;100314.78;5200711;28;20120;-76
2022/07/26 08:20:12;;;;;;;3.92;1.23;;;;;;;27.45;63.25;100307.41;5200731;28;20398;-76
2022/07/26 08:22:42;;;;;;;4.38;1.20;;;;;;;27.62;63.19;100311.78;5199667;28;20025;-76
2022/07/26 08:25:12;;;;;;;3.45;1.20;;;;;;;29.54;59.94;100302.94;5197464;28;20025;-76
2022/07/26 08:27:43;;;;;;;3.95;1.17;;;;;;;28.37;60.15;100308.66;5192836;28;20034;-76
2022/07/26 08:30:13;;;;;;;8.65;1.20;;;;;;;26.60;64.11;100316.81;5192956;28;20018;-76
2022/07/26 08:32:44;;;;;;;4.75;1.50;;;;;;;25.99;67.47;100320.69;5192596;28;20112;-75
2022/07/26 08:35:14;;;;;;;5.28;1.23;;;;;;;26.25;66.26;100321.47;5192634;28;20108;-75
2022/07/26 08:37:44;;;;;;;4.97;1.25;;;;;;;27.49;63.61;100314.16;5197791;28;20056;-76
2022/07/26 08:40:15;;;;;;;7.93;1.65;;;;;;;26.51;63.64;100316.94;5201084;28;20021;-75
2022/07/26 08:42:53;;;;;;;3.60;1.38;;;;;;;26.00;65.74;100323.19;5196464;28;20025;-76
2022/07/26 08:45:29;;;;;;;6.10;1.50;;;;;;;25.59;67.81;100325.69;5198788;28;20023;-75
2022/07/26 08:48:00;;;;;;;5.10;1.38;;;;;;;26.94;65.66;100318.41;5198845;28;20041;-75
2022/07/26 08:50:32;;;;;;;3.50;1.30;;;;;;;27.26;62.85;100318.50;5199163;28;20045;-75
2022/07/26 08:53:07;;;;;;;5.53;1.67;;;;;;;26.20;66.37;100319.28;5198612;28;20037;-76
2022/07/26 08:55:38;;;;;;;3.63;1.50;;;;;;;25.91;66.21;100334.00;5198920;28;20032;-75
2022/07/26 08:58:08;;;;;;;5.25;1.42;;;;;;;25.50;67.00;100332.00;5195872;28;20033;-74
2022/07/26 09:00:42;;;;;;;6.78;1.70;;;;;;;24.80;68.58;100339.97;5188215;28;20538;-75
2022/07/26 09:03:25;;;;;;;8.20;1.65;;;;;;;24.79;70.22;100344.47;5198583;28;20076;-73
2022/07/26 09:05:59;;;;;;;5.60;1.73;;;;;;;24.91;68.71;100342.41;5197142;28;20378;-75
2022/07/26 09:08:30;;;;;;;7.82;1.83;;;;;;;25.43;67.10;100336.28;5196193;28;20134;-74
2022/07/26 09:11:01;;;;;;;5.65;1.63;;;;;;;26.06;65.81;100335.97;5197674;28;20029;-76
2022/07/26 09:13:51;;;;;;;5.70;1.45;;;;;;;26.58;64.66;100340.28;5196088;28;20045;-75
2022/07/26 09:16:22;;;;;;;8.10;1.65;;;;;;;25.59;65.56;100349.78;5194535;28;20029;-75
2022/07/26 09:18:53;;;;;;;6.40;1.77;;;;;;;25.09;67.28;100348.63;5196963;28;20099;-75
2022/07/26 09:21:27;;;;;;;6.00;1.70;;;;;;;24.45;68.16;100350.53;5195783;28;20033;-75
2022/07/26 09:23:58;;;;;;;5.88;1.77;;;;;;;24.24;68.56;100347.22;5196318;28;20037;-75
2022/07/26 09:26:29;;;;;;;5.57;1.90;;;;;;;24.19;69.53;100354.03;5196989;28;20029;-74
2022/07/26 09:29:02;;;;;;;6.28;1.60;;;;;;;24.46;68.21;100348.69;5197475;28;20056;-75
2022/07/26 09:31:34;;;;;;;4.13;1.50;;;;;;;24.33;68.45;100349.03;5196200;28;20505;-74
2022/07/26 09:34:05;;;;;;;3.42;1.30;;;;;;;24.61;67.81;100357.94;5196423;28;20414;-75
2022/07/26 09:36:53;;;;;;;3.38;1.30;;;;;;;24.42;68.19;100369.53;5195742;28;20500;-74
2022/07/26 09:39:23;;;;;;;4.22;1.50;;;;;;;24.23;69.32;100393.63;5197263;28;20034;-75
2022/07/26 09:41:54;;;;;;;2.47;1.00;;;;;;;22.90;76.61;100412.28;5192313;28;20092;-75
2022/07/26 09:44:25;;;;;;;5.47;0.90;;;;;;;22.19;79.98;100422.19;5195550;28;20026;-74
2022/07/26 09:46:57;;;;;;;4.35;0.80;;;;;;;21.21;84.19;100442.06;5194952;28;20029;-75
2022/07/26 09:49:29;;;;;;;1.75;0.60;;;;;;;21.09;85.55;100443.06;5195068;28;20040;-74
2022/07/26 09:51:59;;;;;;;3.63;0.70;;;;;;;20.87;86.61;100449.25;5195193;28;20034;-75
2022/07/26 09:54:34;;;;;;;1.85;0.60;;;;;;;20.53;86.59;100448.50;5197048;28;20562;-75
2022/07/26 09:57:04;;;;;;;1.65;0.45;;;;;;;20.44;87.18;100455.38;5193177;28;20022;-74
2022/07/26 09:59:35;;;;;;;2.80;0.60;;;;;;;20.21;86.99;100458.09;5191876;28;20060;-74
2022/07/26 10:02:05;;;;;;;2.20;0.68;;;;;;;20.45;86.75;100462.38;5200468;28;20068;-73
2022/07/26 10:04:35;;;;;;;4.05;0.75;;;;;;;20.62;86.59;100466.38;5197466;28;20029;-74
2022/07/26 10:07:07;;;;;;;3.00;0.80;;;;;;;20.78;86.27;100467.69;5199350;28;20021;-74
2022/07/26 10:10:16;;;;;;;1.90;0.80;;;;;;;21.24;85.68;100471.91;5194382;28;20036;-74
2022/07/26 10:12:50;;;;;;;11.07;0.98;;;;;;;21.32;84.96;100480.13;5189600;28;20029;-71
2022/07/26 10:15:43;;;;;;;1.48;0.70;;;;;;;21.81;83.77;100483.13;5199198;28;20029;-75
2022/07/26 10:18:35;;;;;;;2.88;0.80;;;;;;;22.45;81.48;100489.22;5196875;28;20112;-76
2022/07/26 10:21:15;;;;;;;2.65;0.47;;;;;;;22.77;79.79;100485.47;5196576;28;20437;-75
2022/07/26 10:23:49;;;;;;;3.85;0.93;;;;;;;22.54;78.99;100483.09;5192641;28;20482;-75
2022/07/26 10:26:35;;;;;;;1.70;0.55;;;;;;;22.70;79.47;100482.47;5196090;28;20029;-75
2022/07/26 10:29:24;;;;;;;1.50;0.68;;;;;;;22.81;77.78;100482.41;5194257;28;20072;-74
2022/07/26 10:31:54;;;;;;;2.17;0.80;;;;;;;22.45;78.82;100487.38;5192676;28;20045;-75
2022/07/26 10:34:30;;;;;;;2.88;0.75;;;;;;;22.06;79.59;100485.41;5195186;28;20033;-74
2022/07/26 10:37:07;;;;;;;2.15;0.75;;;;;;;22.11;79.93;100490.38;5195041;28;20494;-75
2022/07/26 10:39:38;;;;;;;2.28;0.85;;;;;;;22.04;79.28;100490.03;5194559;28;20041;-74
2022/07/26 10:42:09;;;;;;;2.60;0.70;;;;;;;22.19;79.29;100491.41;5195771;28;20029;-74
2022/07/26 10:44:43;;;;;;;2.53;0.90;;;;;;;22.67;77.89;100492.56;5188039;28;20096;-75
2022/07/26 10:47:19;;;;;;;3.92;0.90;;;;;;;23.06;76.70;100489.91;5190139;28;20025;-75
2022/07/26 10:49:57;;;;;;;1.15;0.63;;;;;;;23.52;74.99;100479.53;5190590;28;20033;-75
2022/07/26 10:52:29;;;;;;;1.70;0.70;;;;;;;23.25;75.22;100482.03;5195558;28;20029;-72
2022/07/26 10:55:03;;;;;;;2.88;0.73;;;;;;;23.27;75.42;100482.72;5194246;28;20577;-75
2022/07/26 10:57:39;;;;;;;1.55;0.70;;;;;;;23.44;75.74;100489.22;5196060;28;20120;-75
2022/07/26 11:00:23;;;;;;;5.50;1.00;;;;;;;23.66;75.45;100491.63;5194101;28;20041;-76
2022/07/26 11:02:58;;;;;;;3.30;0.90;;;;;;;23.31;76.12;100500.16;5194094;28;20040;-75
2022/07/26 11:05:32;;;;;;;3.67;0.90;;;;;;;23.00;77.60;100509.13;5177979;28;20049;-74
2022/07/26 11:08:09;;;;;;;5.03;1.00;;;;;;;22.91;79.31;100511.75;5195823;28;20045;-75
2022/07/26 11:10:42;;;;;;;3.00;1.13;;;;;;;22.74;80.02;100515.03;5194657;28;20041;-75
2022/07/26 11:13:22;;;;;;;3.45;1.00;;;;;;;22.42;81.58;100506.31;5191699;28;20476;-75
2022/07/26 11:16:01;;;;;;;3.22;1.30;;;;;;;22.51;81.57;100513.53;5191971;28;20045;-74
2022/07/26 11:18:34;;;;;;;3.90;1.25;;;;;;;22.94;80.57;100507.00;5194449;28;20036;-75
2022/07/26 11:21:16;;;;;;;2.33;0.88;;;;;;;23.02;78.96;100507.16;5191640;28;20038;-74
2022/07/26 11:23:49;;;;;;;4.95;1.00;;;;;;;23.24;77.84;100516.84;5187434;28;20032;-75
2022/07/26 11:26:24;;;;;;;3.05;1.05;;;;;;;23.21;78.09;100520.59;5193401;28;20124;-75
2022/07/26 11:29:01;;;;;;;5.05;1.25;;;;;;;23.41;77.92;100530.38;5193900;28;20118;-74
2022/07/26 11:31:58;;;;;;;5.80;1.40;;;;;;;23.08;78.98;100540.47;5194090;28;20535;-75
2022/07/26 11:34:33;;;;;;;4.13;1.00;;;;;;;22.84;80.35;100538.09;5176930;28;20289;-74
2022/07/26 11:37:04;;;;;;;3.95;1.00;;;;;;;22.22;80.41;100543.56;5193857;28;20145;-75
2022/07/26 11:39:35;;;;;;;3.05;1.00;;;;;;;22.24;80.82;100539.78;5189712;28;20514;-75
2022/07/26 11:42:10;;;;;;;3.33;1.00;;;;;;;22.26;80.95;100539.69;5194962;28;20036;-75
2022/07/26 11:44:45;;;;;;;2.80;0.90;;;;;;;22.42;81.01;100546.25;5194670;28;20491;-75